METAR Data

Data at: 1055 UTC 21 Apr 2021

METAR for:KBGR (Bangor Intl Arpt, ME, US)
Text:KBGR 211053Z 02003KT 10SM BKN045 OVC055 07/06 A2988 RMK AO2 SLP117 T00720056
Temperature: 7.2°C ( 45°F)
Dewpoint: 5.6°C ( 42°F) [RH = 90%]
Pressure (altimeter):29.88 inches Hg (1011.9 mb) [Sea level pressure: 1011.7 mb]
Winds:from the NNE (20 degrees) at 3 MPH (3 knots; 1.5 m/s)
Visibility:10 or more sm (16+ km)
Ceiling:4500 feet AGL
Clouds: broken clouds at 4500 feet AGL, overcast cloud deck at 5500 feet AGL